createdAt,value
2023-05-02T00:01:07.088Z,96.1455
2023-05-02T00:02:07.750Z,96.1124
2023-05-02T00:03:07.878Z,96.3154
2023-05-02T00:04:08.244Z,96.3476
2023-05-02T00:06:08.786Z,96.4078
2023-05-02T00:10:11.966Z,96.7433
2023-05-02T00:11:12.571Z,96.8429
2023-05-02T00:12:13.206Z,96.8615
2023-05-02T00:14:13.001Z,96.8852
2023-05-02T00:15:14.543Z,96.8188
2023-05-02T00:18:16.146Z,96.9051
2023-05-02T00:19:17.969Z,97.0514
2023-05-02T00:20:18.667Z,97.1460
2023-05-02T00:23:20.368Z,97.3721
2023-05-02T00:24:21.569Z,97.3842
2023-05-02T00:26:22.552Z,97.4731
2023-05-02T00:27:23.255Z,97.4581
2023-05-02T00:28:24.052Z,97.4835
2023-05-02T00:29:24.820Z,97.4981
2023-05-02T00:30:25.774Z,97.4519
2023-05-02T00:31:26.239Z,97.5131
2023-05-02T00:32:26.357Z,97.6107
2023-05-02T00:33:28.176Z,97.6908
2023-05-02T00:34:28.697Z,97.6861
2023-05-02T00:35:29.015Z,97.6819
2023-05-02T00:36:29.556Z,97.6865
2023-05-02T00:37:30.268Z,97.7488
2023-05-02T00:38:30.582Z,97.7363
2023-05-02T00:39:30.651Z,97.5456
2023-05-02T00:40:31.065Z,97.4938
2023-05-02T00:41:33.393Z,97.5480
2023-05-02T00:48:39.331Z,97.2746
2023-05-02T00:49:40.293Z,97.2619
2023-05-02T00:50:41.221Z,97.1689
2023-05-02T00:51:41.487Z,97.3052
2023-05-02T00:52:41.719Z,97.3803
2023-05-02T00:53:43.333Z,97.3837
2023-05-02T00:54:44.444Z,97.4723
2023-05-02T00:55:45.986Z,97.3170
2023-05-02T00:56:46.413Z,97.1271
2023-05-02T00:59:48.502Z,97.0623
2023-05-02T01:00:49.697Z,97.1322
2023-05-02T01:01:50.073Z,97.1627
2023-05-02T01:04:53.426Z,97.1791
2023-05-02T01:05:54.696Z,97.2066
2023-05-02T01:06:55.242Z,97.2683
2023-05-02T01:07:55.453Z,97.2886
2023-05-02T01:08:55.953Z,97.3394
2023-05-02T01:09:57.382Z,97.3769
2023-05-02T01:10:58.428Z,97.3907
2023-05-02T01:11:58.872Z,97.3485
2023-05-02T01:12:58.930Z,97.3994
2023-05-02T01:14:00.051Z,97.3463
2023-05-02T01:15:00.100Z,97.4197
2023-05-02T01:16:00.999Z,97.4281
2023-05-02T01:17:03.263Z,97.5135
2023-05-02T01:18:04.347Z,97.5558
2023-05-02T01:19:04.767Z,97.6789
2023-05-02T01:20:06.136Z,97.6990
2023-05-02T01:23:08.882Z,97.8750
2023-05-02T01:28:10.662Z,98.0132
2023-05-02T01:29:11.026Z,98.0298
2023-05-02T01:30:12.871Z,98.0891
2023-05-02T01:32:12.885Z,98.2039
2023-05-02T01:33:14.594Z,98.3215
2023-05-02T01:34:15.209Z,98.3204
2023-05-02T01:35:15.437Z,98.3318
2023-05-02T01:36:16.771Z,98.3807
2023-05-02T01:37:17.601Z,98.4876
2023-05-02T01:38:18.600Z,98.5347
2023-05-02T01:39:19.665Z,98.5730
2023-05-02T01:40:20.752Z,98.5876
2023-05-02T01:41:21.058Z,98.6333
2023-05-02T01:42:23.054Z,98.6161
2023-05-02T01:43:24.116Z,98.6691
2023-05-02T01:44:25.458Z,98.6530
2023-05-02T01:53:40.722Z,98.3933
2023-05-02T01:54:40.725Z,98.4304
2023-05-02T01:55:42.320Z,98.4220
2023-05-02T01:56:43.009Z,98.4505
2023-05-02T01:57:43.003Z,98.4559
2023-05-02T01:58:43.858Z,98.4593
2023-05-02T01:59:45.305Z,98.4764
2023-05-02T02:00:46.724Z,98.4763
2023-05-02T02:01:47.097Z,98.5183
2023-05-02T02:09:58.669Z,98.8008
2023-05-02T02:10:59.668Z,98.7969
2023-05-02T02:12:01.098Z,98.7929
2023-05-02T02:13:02.648Z,98.7062
2023-05-02T02:16:05.020Z,98.7964
2023-05-02T02:17:05.446Z,98.8642
2023-05-02T02:18:05.500Z,98.9135
2023-05-02T02:19:06.204Z,98.9375
2023-05-02T02:20:06.965Z,98.9646
2023-05-02T02:21:07.532Z,98.9993
2023-05-02T02:22:08.128Z,98.9884
2023-05-02T02:23:08.715Z,98.8774
2023-05-02T02:24:09.335Z,98.6733
2023-05-02T02:25:09.831Z,98.5707
2023-05-02T02:26:10.436Z,98.4331
2023-05-02T02:27:10.981Z,98.3858
2023-05-02T02:28:11.444Z,98.3135
2023-05-02T02:29:11.952Z,98.2740
2023-05-02T02:30:12.457Z,98.1844
2023-05-02T02:31:13.349Z,98.1251
2023-05-02T02:32:14.153Z,98.1269
2023-05-02T02:33:14.903Z,98.1302
2023-05-02T02:34:15.631Z,98.1220
2023-05-02T02:35:16.209Z,98.1035
2023-05-02T02:36:16.631Z,98.0062
2023-05-02T02:37:17.357Z,97.9619
2023-05-02T02:38:17.980Z,97.9267
2023-05-02T02:39:18.464Z,97.8564
2023-05-02T02:40:19.156Z,97.7915
2023-05-02T02:41:19.584Z,97.7355
2023-05-02T02:42:20.172Z,97.6651
2023-05-02T02:43:20.780Z,97.5806
2023-05-02T02:44:20.845Z,97.4993
2023-05-02T02:45:22.391Z,97.4412
2023-05-02T02:47:23.304Z,97.3341
2023-05-02T02:48:23.652Z,97.1934
2023-05-02T02:49:24.200Z,97.1628
2023-05-02T02:50:24.518Z,97.1029
2023-05-02T02:51:25.107Z,96.9885
2023-05-02T02:52:25.443Z,96.9078
2023-05-02T02:53:25.558Z,96.8613
2023-05-02T02:54:30.136Z,96.8321
2023-05-02T02:55:30.545Z,96.8799
2023-05-02T02:56:30.925Z,96.6551
2023-05-02T02:57:31.417Z,96.6649
2023-05-02T02:58:31.922Z,96.7099
2023-05-02T02:59:32.215Z,96.7813
2023-05-02T03:00:32.633Z,96.8251
2023-05-02T03:01:33.231Z,96.7246
2023-05-02T03:02:33.768Z,96.5867
2023-05-02T03:03:35.018Z,96.6980
2023-05-02T03:04:35.653Z,96.7287
2023-05-02T03:05:36.197Z,96.6109
2023-05-02T03:06:37.030Z,96.5855
2023-05-02T03:07:37.739Z,96.4837
2023-05-02T03:08:38.277Z,96.4790
2023-05-02T03:09:38.801Z,96.3601
2023-05-02T03:10:39.112Z,96.2219
2023-05-02T03:11:39.611Z,96.1649
2023-05-02T03:12:40.448Z,96.0928
2023-05-02T03:13:41.335Z,95.8911
2023-05-02T03:14:42.106Z,95.9884
2023-05-02T03:15:42.537Z,96.0165
2023-05-02T03:16:43.512Z,95.9205
2023-05-02T03:17:44.331Z,95.3151
2023-05-02T03:18:45.964Z,95.0398
2023-05-02T03:19:46.263Z,95.0265
2023-05-02T03:20:46.850Z,95.1566
2023-05-02T03:21:47.592Z,95.3381
2023-05-02T03:22:48.559Z,95.4038
2023-05-02T03:23:49.089Z,95.6025
2023-05-02T03:24:49.609Z,95.4936
2023-05-02T03:25:51.466Z,95.5813
2023-05-02T03:27:51.123Z,95.7939
2023-05-02T03:28:51.695Z,95.9384
2023-05-02T03:29:52.194Z,96.0796
2023-05-02T03:30:52.463Z,96.0840
2023-05-02T03:31:53.252Z,96.0515
2023-05-02T03:32:54.439Z,95.7977
2023-05-02T03:33:55.195Z,95.8666
2023-05-02T03:34:55.690Z,95.9970
2023-05-02T03:35:56.140Z,95.8122
2023-05-02T03:36:56.640Z,95.4903
2023-05-02T03:37:57.158Z,95.2616
2023-05-02T03:38:57.523Z,95.2307
2023-05-02T03:39:58.216Z,95.1646
2023-05-02T03:40:58.253Z,95.2968
2023-05-02T03:41:58.707Z,95.1573
2023-05-02T03:42:59.150Z,95.1596
2023-05-02T03:43:59.566Z,95.0536
2023-05-02T03:45:00.210Z,94.6706
2023-05-02T03:46:01.380Z,94.7884
2023-05-02T03:47:02.243Z,95.1402
2023-05-02T03:48:03.352Z,95.1527
2023-05-02T03:49:04.032Z,95.2889
2023-05-02T03:50:04.377Z,94.8184
2023-05-02T03:51:04.930Z,94.8203
2023-05-02T03:52:05.598Z,95.1097
2023-05-02T03:53:06.814Z,95.3264
2023-05-02T03:54:07.365Z,95.4272
2023-05-02T03:55:08.033Z,95.4335
2023-05-02T03:56:08.390Z,95.6011
2023-05-02T03:57:09.167Z,95.5819
2023-05-02T03:58:09.568Z,95.0636
2023-05-02T03:59:10.396Z,95.1492
2023-05-02T04:00:11.302Z,95.0888
2023-05-02T04:01:11.843Z,95.3501
2023-05-02T04:02:12.370Z,95.4089
2023-05-02T04:03:12.573Z,95.4046
2023-05-02T04:04:13.349Z,95.6249
2023-05-02T04:05:13.825Z,95.7399
2023-05-02T04:06:14.955Z,95.6577
2023-05-02T04:07:15.484Z,95.5995
2023-05-02T04:08:16.014Z,95.5272
2023-05-02T04:09:16.684Z,95.4024
2023-05-02T04:10:17.772Z,95.5408
2023-05-02T04:11:18.410Z,95.5267
2023-05-02T04:12:18.945Z,95.5336
2023-05-02T04:13:19.293Z,95.3942
2023-05-02T04:14:20.025Z,95.4451
2023-05-02T04:15:20.440Z,95.5371
2023-05-02T04:16:21.228Z,95.6093
2023-05-02T04:17:21.301Z,95.7336
2023-05-02T04:18:22.139Z,95.7567
2023-05-02T04:19:22.699Z,95.7052
2023-05-02T04:20:23.225Z,95.5626
2023-05-02T04:21:23.785Z,95.3945
2023-05-02T04:22:24.430Z,95.4638
2023-05-02T04:23:24.690Z,95.5583
2023-05-02T04:24:25.289Z,95.7396
2023-05-02T04:25:25.726Z,95.7232
2023-05-02T04:26:26.216Z,95.6909
2023-05-02T04:27:26.367Z,95.5808
2023-05-02T04:28:26.884Z,95.6131
2023-05-02T04:29:27.525Z,95.4120
2023-05-02T04:30:28.464Z,95.5616
2023-05-02T04:31:29.119Z,95.6578
2023-05-02T04:32:29.922Z,95.5423
2023-05-02T04:33:30.813Z,95.5258
2023-05-02T04:34:31.210Z,95.6893
2023-05-02T04:35:31.888Z,95.7226
2023-05-02T04:36:32.391Z,95.8558
2023-05-02T04:37:32.600Z,96.1316
2023-05-02T04:38:33.145Z,96.3198
2023-05-02T04:39:33.626Z,96.2396
2023-05-02T04:40:34.134Z,96.2953
2023-05-02T04:41:34.844Z,96.3311
2023-05-02T04:42:35.237Z,96.4121
2023-05-02T04:43:35.671Z,96.4322
2023-05-02T04:44:36.511Z,96.4930
2023-05-02T04:45:37.186Z,96.5831
2023-05-02T04:46:38.313Z,96.6603
2023-05-02T04:47:38.949Z,96.6897
2023-05-02T04:48:39.908Z,96.6348
2023-05-02T04:49:40.877Z,96.6032
2023-05-02T04:50:42.156Z,96.6144
2023-05-02T04:51:42.968Z,96.6605
2023-05-02T04:52:43.576Z,96.7420
2023-05-02T04:53:43.920Z,96.7321
2023-05-02T04:54:44.591Z,96.8047
2023-05-02T04:55:44.948Z,96.7231
2023-05-02T04:56:45.565Z,96.7691
2023-05-02T04:57:46.820Z,96.8393
2023-05-02T04:58:47.317Z,96.7952
2023-05-02T04:59:47.971Z,96.7927
2023-05-02T05:00:48.571Z,96.8999
2023-05-02T05:01:49.336Z,96.9474
2023-05-02T05:02:50.978Z,97.1540
2023-05-02T05:03:51.075Z,97.3227
2023-05-02T05:04:51.679Z,97.2937
2023-05-02T05:05:51.952Z,97.3404
2023-05-02T05:06:53.125Z,97.3237
2023-05-02T05:07:53.816Z,97.3490
2023-05-02T05:08:54.482Z,97.5045
2023-05-02T05:09:55.980Z,97.3723
2023-05-02T05:10:57.005Z,97.5741
2023-05-02T05:11:57.691Z,97.5976
2023-05-02T05:12:58.149Z,97.6474
2023-05-02T05:13:58.874Z,97.6653
2023-05-02T05:14:59.354Z,97.5809
2023-05-02T05:16:00.255Z,97.4641
2023-05-02T05:17:00.423Z,97.2324
2023-05-02T05:18:01.003Z,97.0451
2023-05-02T05:19:01.340Z,96.9131
2023-05-02T05:20:02.276Z,96.7144
2023-05-02T05:21:02.857Z,96.6562
2023-05-02T05:23:04.324Z,96.3035
2023-05-02T05:24:04.822Z,96.1584
2023-05-02T05:25:05.699Z,95.9651
2023-05-02T05:26:06.544Z,95.8288
2023-05-02T05:27:07.396Z,95.8370
2023-05-02T05:28:08.083Z,95.8650
2023-05-02T05:29:08.776Z,95.8309
2023-05-02T05:30:09.729Z,95.7926
2023-05-02T05:31:10.599Z,95.7191
2023-05-02T05:32:11.668Z,95.4667
2023-05-02T05:33:12.393Z,95.3185
2023-05-02T05:34:12.814Z,95.1556
2023-05-02T05:35:13.551Z,95.0115
2023-05-02T05:36:14.774Z,94.9102
2023-05-02T05:37:15.363Z,94.6183
2023-05-02T05:38:15.907Z,94.4631
2023-05-02T05:39:16.665Z,94.2967
2023-05-02T05:40:17.581Z,94.0344
2023-05-02T05:41:18.292Z,94.2115
2023-05-02T05:42:19.053Z,94.1971
2023-05-02T05:43:20.089Z,94.0663
2023-05-02T05:44:20.576Z,93.8774
2023-05-02T05:45:21.507Z,93.6651
2023-05-02T05:46:23.146Z,93.6500
2023-05-02T05:47:24.179Z,93.6329
2023-05-02T05:48:25.318Z,93.6231
2023-05-02T05:49:26.124Z,93.6319
2023-05-02T05:50:26.754Z,93.7139
2023-05-02T05:51:27.699Z,93.7458
2023-05-02T05:52:28.406Z,93.7279
2023-05-02T05:53:29.437Z,93.7840
2023-05-02T05:54:30.369Z,93.7221
2023-05-02T05:55:31.087Z,93.7620
2023-05-02T05:56:31.939Z,93.7558
2023-05-02T05:57:32.654Z,93.5497
2023-05-02T05:58:33.381Z,93.4766
2023-05-02T05:59:34.355Z,93.4455
2023-05-02T06:00:35.794Z,93.6621
2023-05-02T06:01:36.605Z,93.0496
2023-05-02T06:02:36.757Z,92.8916
2023-05-02T06:03:37.296Z,92.9680
2023-05-02T06:04:37.576Z,92.9638
2023-05-02T06:05:38.139Z,92.4301
2023-05-02T06:06:39.065Z,92.1255
2023-05-02T06:07:39.947Z,92.0676
2023-05-02T06:08:40.459Z,92.3043
2023-05-02T06:09:41.297Z,92.3372
2023-05-02T06:10:42.549Z,92.3828
2023-05-02T06:11:43.163Z,92.3945
2023-05-02T06:12:45.209Z,91.9425
2023-05-02T06:13:45.256Z,91.6006
2023-05-02T06:14:45.698Z,91.2070
2023-05-02T06:15:46.295Z,91.0770
2023-05-02T06:16:47.197Z,91.3955
2023-05-02T06:17:48.071Z,91.3042
2023-05-02T06:18:48.926Z,92.2525
2023-05-02T06:19:49.497Z,92.0221
2023-05-02T06:20:49.867Z,91.3698
2023-05-02T06:21:50.683Z,91.3148
2023-05-02T06:22:51.127Z,91.4508
2023-05-02T06:23:51.946Z,91.5162
2023-05-02T06:24:52.526Z,91.3901
2023-05-02T06:25:53.033Z,91.3349
2023-05-02T06:26:53.743Z,91.4675
2023-05-02T06:27:54.297Z,91.0824
2023-05-02T06:28:54.896Z,90.9751
2023-05-02T06:29:55.670Z,91.8062
2023-05-02T06:30:56.111Z,92.3889
2023-05-02T06:31:57.171Z,91.7734
2023-05-02T06:32:57.998Z,92.0472
2023-05-02T06:33:58.762Z,92.9301
2023-05-02T06:34:59.503Z,92.8123
2023-05-02T06:36:01.834Z,92.7809
2023-05-02T06:37:00.392Z,92.5669
2023-05-02T06:38:01.067Z,92.0793
2023-05-02T06:39:01.676Z,92.1553
2023-05-02T06:40:03.288Z,92.4395
2023-05-02T06:41:04.238Z,92.1571
2023-05-02T06:42:04.521Z,91.9340
2023-05-02T06:43:05.403Z,92.2340
2023-05-02T06:44:06.067Z,92.3764
2023-05-02T06:45:06.750Z,92.0738
2023-05-02T06:46:07.472Z,91.7787
2023-05-02T06:47:08.174Z,91.8171
2023-05-02T06:48:08.476Z,90.8639
2023-05-02T06:49:09.323Z,90.2386
2023-05-02T06:50:10.527Z,90.1487
2023-05-02T06:51:11.270Z,90.1853
2023-05-02T06:52:12.053Z,89.9076
2023-05-02T06:53:12.657Z,89.0744
2023-05-02T06:54:13.645Z,89.1340
2023-05-02T06:55:14.383Z,89.4770
2023-05-02T06:56:15.016Z,89.0773
2023-05-02T06:57:15.782Z,88.6715
2023-05-02T06:58:16.264Z,88.5181
2023-05-02T06:59:16.965Z,88.6410
2023-05-02T07:00:17.871Z,89.2086
2023-05-02T07:01:18.953Z,89.3854
2023-05-02T07:02:19.571Z,89.5388
2023-05-02T07:03:20.679Z,89.4188
2023-05-02T07:04:21.361Z,89.3587
2023-05-02T07:05:22.068Z,89.4892
2023-05-02T07:06:22.698Z,89.4407
2023-05-02T07:07:23.315Z,88.5630
2023-05-02T07:08:23.891Z,89.1109
2023-05-02T07:09:24.390Z,89.3702
2023-05-02T07:10:25.710Z,88.8196
2023-05-02T07:11:26.374Z,87.5640
2023-05-02T07:12:27.556Z,87.4571
2023-05-02T07:13:28.502Z,88.1332
2023-05-02T07:14:29.056Z,88.1534
2023-05-02T07:15:29.466Z,87.7959
2023-05-02T07:16:30.428Z,87.8361
2023-05-02T07:17:31.278Z,87.7008
2023-05-02T07:18:32.279Z,87.7606
2023-05-02T07:19:32.899Z,88.3764
2023-05-02T07:20:33.948Z,88.9470
2023-05-02T07:21:34.629Z,88.6023
2023-05-02T07:22:35.273Z,88.8654
2023-05-02T07:23:35.706Z,89.3914
2023-05-02T07:24:36.393Z,88.9948
2023-05-02T07:25:37.238Z,88.7691
2023-05-02T07:26:37.998Z,88.8308
2023-05-02T07:27:38.576Z,88.2018
2023-05-02T07:28:39.195Z,87.4561
2023-05-02T07:29:39.896Z,88.1380
2023-05-02T07:30:40.543Z,88.3310
2023-05-02T07:31:41.119Z,87.9867
2023-05-02T07:32:42.016Z,87.3149
2023-05-02T07:33:42.967Z,86.6365
2023-05-02T07:34:43.610Z,87.7166
2023-05-02T07:35:44.261Z,87.6357
2023-05-02T07:36:44.616Z,87.6974
2023-05-02T07:37:45.219Z,87.3767
2023-05-02T07:38:45.806Z,87.6113
2023-05-02T07:39:46.246Z,87.9213
2023-05-02T07:40:46.890Z,87.9089
2023-05-02T07:41:47.482Z,87.0003
2023-05-02T07:42:47.985Z,87.1800
2023-05-02T07:43:48.710Z,87.6208
2023-05-02T07:44:49.178Z,87.4987
2023-05-02T07:45:50.150Z,86.9816
2023-05-02T07:46:50.276Z,87.0765
2023-05-02T07:47:50.659Z,87.4422
2023-05-02T07:48:51.588Z,87.0905
2023-05-02T07:49:52.330Z,87.1707
2023-05-02T07:50:52.535Z,86.7662
2023-05-02T07:51:53.265Z,87.0453
2023-05-02T07:52:53.812Z,87.5517
2023-05-02T07:53:54.225Z,87.4894
2023-05-02T07:54:54.900Z,88.1598
2023-05-02T07:55:55.296Z,87.7260
2023-05-02T07:56:55.821Z,88.1063
2023-05-02T07:57:56.472Z,87.1587
2023-05-02T07:58:56.895Z,87.3288
2023-05-02T07:59:57.693Z,86.7045
2023-05-02T08:00:58.092Z,86.4196
2023-05-02T08:01:58.684Z,86.3911
2023-05-02T08:02:59.985Z,86.3007
2023-05-02T08:04:00.656Z,86.8378
2023-05-02T08:05:01.479Z,86.1513
2023-05-02T08:06:01.616Z,86.8460
2023-05-02T08:07:02.450Z,88.0277
2023-05-02T08:08:03.256Z,87.6362
2023-05-02T08:09:03.702Z,86.1912
2023-05-02T08:10:04.557Z,84.4389
2023-05-02T08:11:04.433Z,83.9482
2023-05-02T08:12:05.369Z,84.9935
2023-05-02T08:13:06.111Z,84.9894
2023-05-02T08:14:06.858Z,85.3584
2023-05-02T08:15:07.342Z,85.4698
2023-05-02T08:16:08.426Z,85.2466
2023-05-02T08:17:08.751Z,85.0405
2023-05-02T08:18:09.497Z,84.9510
2023-05-02T08:19:10.342Z,84.9794
2023-05-02T08:20:10.403Z,84.8585
2023-05-02T08:21:11.092Z,84.5257
2023-05-02T08:22:12.040Z,84.8932
2023-05-02T08:23:12.642Z,84.8073
2023-05-02T08:24:14.329Z,84.0724
2023-05-02T08:25:15.072Z,83.8092
2023-05-02T08:26:15.731Z,84.4934
2023-05-02T08:27:16.498Z,84.4904
2023-05-02T08:28:17.299Z,83.1798
2023-05-02T08:29:17.870Z,83.6705
2023-05-02T08:30:18.828Z,82.7849
2023-05-02T08:31:19.667Z,82.6267
2023-05-02T08:32:20.872Z,83.6658
2023-05-02T08:33:21.947Z,83.0704
2023-05-02T08:34:22.707Z,82.7709
2023-05-02T08:35:23.324Z,83.0637
2023-05-02T08:36:24.253Z,83.2824
2023-05-02T08:37:24.656Z,82.7680
2023-05-02T08:38:25.266Z,82.2586
2023-05-02T08:39:26.007Z,82.7191
2023-05-02T08:40:38.199Z,83.7773
2023-05-02T08:41:27.210Z,82.4996
2023-05-02T08:42:27.618Z,81.3991
2023-05-02T08:43:28.279Z,81.2679
2023-05-02T08:44:29.000Z,81.4134
2023-05-02T08:45:30.035Z,80.3098
2023-05-02T08:46:31.133Z,80.6786
2023-05-02T08:47:32.110Z,80.0982
2023-05-02T08:48:32.182Z,79.9471
2023-05-02T08:49:32.692Z,79.7062
2023-05-02T08:50:33.390Z,78.8819
2023-05-02T08:51:33.481Z,78.4294
2023-05-02T08:52:34.016Z,78.6784
2023-05-02T08:53:34.749Z,78.7685
2023-05-02T08:54:35.250Z,79.0606
2023-05-02T08:55:35.915Z,78.4114
2023-05-02T08:56:36.837Z,78.1794
2023-05-02T08:57:37.366Z,78.3824
2023-05-02T08:58:38.020Z,78.2418
2023-05-02T08:59:39.189Z,77.9403
2023-05-02T09:00:39.736Z,77.7603
2023-05-02T09:01:40.886Z,76.8706
2023-05-02T09:02:41.629Z,76.6705
2023-05-02T09:03:42.385Z,75.6478
2023-05-02T09:04:43.418Z,75.3526
2023-05-02T09:05:43.375Z,75.2465
2023-05-02T09:06:44.172Z,76.2748
2023-05-02T09:07:44.817Z,74.3323
2023-05-02T09:08:45.266Z,72.5126
2023-05-02T09:09:45.840Z,72.9467
2023-05-02T09:10:46.480Z,72.8857
2023-05-02T09:11:46.979Z,71.3492
2023-05-02T09:12:47.826Z,71.4098
2023-05-02T09:13:48.353Z,71.0619
2023-05-02T09:14:49.065Z,70.5354
2023-05-02T09:15:49.843Z,70.5692
2023-05-02T09:16:50.631Z,71.0069
2023-05-02T09:17:51.684Z,70.8810
2023-05-02T09:18:52.381Z,71.3581
2023-05-02T09:19:52.977Z,73.3960
2023-05-02T09:20:53.634Z,74.6800
2023-05-02T09:21:54.588Z,74.2197
2023-05-02T09:22:55.200Z,73.0481
2023-05-02T09:23:55.750Z,71.4077
2023-05-02T09:24:56.271Z,71.8767
2023-05-02T09:25:57.628Z,72.4312
2023-05-02T09:26:58.941Z,71.7641
2023-05-02T09:27:59.714Z,71.3693
2023-05-02T09:29:00.481Z,70.2998
2023-05-02T09:30:01.391Z,70.8778
2023-05-02T09:31:02.439Z,70.3656
2023-05-02T09:32:03.750Z,71.3946
2023-05-02T09:33:04.867Z,69.8643
2023-05-02T09:34:05.309Z,68.3195
2023-05-02T09:35:06.225Z,69.5692
2023-05-02T09:36:06.741Z,69.1632
2023-05-02T09:37:07.391Z,69.6623
2023-05-02T09:38:08.093Z,69.3156
2023-05-02T09:39:09.015Z,69.0920
2023-05-02T09:40:09.610Z,67.9464
2023-05-02T09:41:10.418Z,66.3512
2023-05-02T09:42:10.995Z,66.6442
2023-05-02T09:43:11.687Z,68.1438
2023-05-02T09:44:12.276Z,69.7827
2023-05-02T09:45:13.481Z,70.5785
2023-05-02T09:46:14.335Z,71.0911
2023-05-02T09:47:15.536Z,71.0150
2023-05-02T09:48:16.429Z,70.0744
2023-05-02T09:49:17.314Z,70.2330
2023-05-02T09:50:18.118Z,71.6311
2023-05-02T09:51:18.847Z,72.9204
2023-05-02T09:52:19.646Z,72.0937
2023-05-02T09:53:20.155Z,72.4608
2023-05-02T09:54:20.798Z,71.4568
2023-05-02T09:55:21.489Z,71.5235
2023-05-02T09:56:23.298Z,72.1035
2023-05-02T09:57:22.866Z,71.4135
2023-05-02T09:58:23.352Z,70.9982
2023-05-02T09:59:24.042Z,70.8065
2023-05-02T10:00:24.768Z,71.0576
2023-05-02T10:01:25.459Z,70.6623
2023-05-02T10:02:25.965Z,69.0470
2023-05-02T10:03:26.973Z,70.8309
2023-05-02T10:04:28.260Z,70.3365
2023-05-02T10:05:30.176Z,69.5089
2023-05-02T10:06:29.653Z,67.6487
2023-05-02T10:07:30.756Z,68.0224
2023-05-02T10:08:31.706Z,68.8659
2023-05-02T10:09:31.768Z,69.7603
2023-05-02T10:10:32.355Z,69.6741
2023-05-02T10:11:33.368Z,68.8910
2023-05-02T10:12:33.992Z,69.0247
2023-05-02T10:13:34.760Z,69.0355
2023-05-02T10:14:37.191Z,66.2522
2023-05-02T10:15:37.807Z,64.5983
2023-05-02T10:16:39.002Z,64.8708
2023-05-02T10:17:39.847Z,64.9638
2023-05-02T10:18:40.983Z,66.3698
2023-05-02T10:19:41.755Z,67.7441
2023-05-02T10:20:42.421Z,66.6681
2023-05-02T10:21:42.948Z,65.4085
2023-05-02T10:22:43.742Z,65.3824
2023-05-02T10:23:44.374Z,65.1681
2023-05-02T10:24:45.218Z,64.9753
2023-05-02T10:25:45.895Z,65.3580
2023-05-02T10:26:46.455Z,65.3664
2023-05-02T10:27:47.171Z,66.7719
2023-05-02T10:28:48.090Z,67.5529
2023-05-02T10:29:48.794Z,67.7431
2023-05-02T10:30:49.546Z,66.5307
2023-05-02T10:31:50.134Z,66.4527
2023-05-02T10:32:51.159Z,67.1355
2023-05-02T10:33:52.168Z,65.8394
2023-05-02T10:34:52.678Z,65.3900
2023-05-02T10:35:53.326Z,66.1926
2023-05-02T10:36:54.011Z,67.3134
2023-05-02T10:39:04.223Z,67.6829
2023-05-02T10:40:04.851Z,66.9526
2023-05-02T10:41:05.393Z,66.5441
2023-05-02T10:42:06.068Z,66.8564
2023-05-02T10:43:06.707Z,67.8157
2023-05-02T10:44:07.271Z,68.5968
2023-05-02T10:45:07.994Z,67.2482
2023-05-02T10:46:08.557Z,68.0814
2023-05-02T10:47:09.011Z,68.9118
2023-05-02T10:48:09.970Z,70.2919
2023-05-02T10:49:10.492Z,69.6040
2023-05-02T10:50:11.340Z,69.2953
2023-05-02T10:52:11.720Z,69.3224
2023-05-02T10:53:12.339Z,69.3292
2023-05-02T10:54:12.735Z,69.1223
2023-05-02T10:55:13.482Z,69.9351
2023-05-02T10:56:14.205Z,70.4652
2023-05-02T10:57:14.716Z,68.7762
2023-05-02T10:58:15.662Z,68.6902
2023-05-02T10:59:16.472Z,69.4103
2023-05-02T11:00:16.934Z,68.1560
2023-05-02T11:01:17.922Z,68.4413
2023-05-02T11:02:18.752Z,69.6292
2023-05-02T11:03:19.088Z,69.1602
2023-05-02T11:04:19.846Z,68.9877
2023-05-02T11:05:21.120Z,67.7045
2023-05-02T11:06:21.934Z,68.1795
2023-05-02T11:07:23.251Z,67.3865
2023-05-02T11:08:24.325Z,69.0319
2023-05-02T11:09:24.859Z,67.5474
2023-05-02T11:10:25.637Z,68.5661
2023-05-02T11:11:26.048Z,69.2350
2023-05-02T11:12:26.749Z,68.4146
2023-05-02T11:13:27.149Z,68.3868
2023-05-02T11:14:27.760Z,69.0755
2023-05-02T11:15:28.475Z,68.1042
2023-05-02T11:16:29.153Z,68.7022
2023-05-02T11:17:30.108Z,69.0598
2023-05-02T11:18:31.073Z,66.9138
2023-05-02T11:19:31.752Z,66.7840
2023-05-02T11:20:32.519Z,67.9722
2023-05-02T11:21:33.030Z,66.9583
2023-05-02T11:22:33.708Z,66.7312
2023-05-02T11:23:34.393Z,69.5966
2023-05-02T11:24:34.957Z,66.9481
2023-05-02T11:25:35.538Z,66.4535
2023-05-02T11:26:36.148Z,66.9811
2023-05-02T11:27:36.588Z,67.0756
2023-05-02T11:28:37.398Z,67.8720
2023-05-02T11:29:37.886Z,67.8802
2023-05-02T11:30:38.450Z,67.8444
2023-05-02T11:31:39.638Z,67.7545
2023-05-02T11:32:39.660Z,66.6234
2023-05-02T11:33:40.731Z,66.0820
2023-05-02T11:34:41.420Z,67.1736
2023-05-02T11:35:41.637Z,68.3598
2023-05-02T11:36:42.320Z,66.5732
2023-05-02T11:37:42.833Z,65.4996
2023-05-02T11:38:43.406Z,66.1213
2023-05-02T11:39:44.260Z,61.3823
2023-05-02T11:40:44.769Z,61.0183
2023-05-02T11:41:45.464Z,62.0392
2023-05-02T11:42:46.088Z,63.0883
2023-05-02T11:43:46.163Z,62.7402
2023-05-02T11:44:46.813Z,63.5989
2023-05-02T11:45:47.322Z,61.8672
2023-05-02T11:46:48.053Z,63.4480
2023-05-02T11:47:48.845Z,62.8316
2023-05-02T11:48:49.622Z,59.7675
2023-05-02T11:49:50.589Z,55.6938
2023-05-02T11:50:52.612Z,54.0817
2023-05-02T11:51:53.015Z,54.5173
2023-05-02T11:52:53.658Z,55.6878
2023-05-02T11:53:54.409Z,55.1596
2023-05-02T11:54:54.876Z,53.1949
2023-05-02T11:55:56.152Z,52.7217
2023-05-02T11:56:56.600Z,55.2262
2023-05-02T11:57:57.195Z,54.5812
2023-05-02T11:58:57.300Z,54.1987
2023-05-02T11:59:58.129Z,53.3549
2023-05-02T12:00:59.116Z,53.5233
2023-05-02T12:01:59.737Z,53.2327
2023-05-02T12:03:00.751Z,56.5333
2023-05-02T12:04:01.620Z,56.0395
2023-05-02T12:05:03.217Z,58.0967
2023-05-02T12:06:03.306Z,56.9753
2023-05-02T12:07:04.004Z,54.6150
2023-05-02T12:08:05.064Z,55.1272
2023-05-02T12:09:05.496Z,55.7860
2023-05-02T12:10:06.173Z,53.2249
2023-05-02T12:11:06.605Z,50.2362
2023-05-02T12:12:07.259Z,48.9083
2023-05-02T12:13:08.906Z,49.6026
2023-05-02T12:14:08.104Z,48.2815
2023-05-02T12:15:09.395Z,50.4254
2023-05-02T12:16:10.453Z,47.9790
2023-05-02T12:17:11.253Z,46.6503
2023-05-02T12:18:12.520Z,45.4121
2023-05-02T12:19:12.853Z,47.7862
2023-05-02T12:20:13.437Z,48.9739
2023-05-02T12:21:14.137Z,51.9207
2023-05-02T12:22:14.759Z,53.4858
2023-05-02T12:23:15.410Z,54.4853
2023-05-02T12:24:16.229Z,55.8541
2023-05-02T12:25:16.775Z,59.5259
2023-05-02T12:26:16.814Z,59.9895
2023-05-02T12:27:16.995Z,59.0090
2023-05-02T12:28:17.617Z,60.3719
2023-05-02T12:29:18.430Z,64.5217
2023-05-02T12:30:19.143Z,65.7107
2023-05-02T12:31:20.008Z,67.1242
2023-05-02T12:32:20.919Z,68.6016
2023-05-02T12:33:21.740Z,69.6113
2023-05-02T12:34:22.563Z,70.8727
2023-05-02T12:35:23.318Z,71.8557
2023-05-02T12:36:23.265Z,72.3302
2023-05-02T12:37:23.969Z,72.5332
2023-05-02T12:38:25.134Z,73.3717
2023-05-02T12:39:25.930Z,73.7793
2023-05-02T12:40:26.429Z,74.3046
2023-05-02T12:41:27.132Z,75.2808
2023-05-02T12:42:27.931Z,75.2337
2023-05-02T12:43:28.418Z,75.7464
2023-05-02T12:44:28.540Z,76.6704
2023-05-02T12:45:29.160Z,76.8392
2023-05-02T12:46:30.057Z,76.8934
2023-05-02T12:47:31.380Z,76.7243
2023-05-02T12:48:32.144Z,76.6695
2023-05-02T12:49:32.922Z,77.5240
2023-05-02T12:50:34.039Z,78.4169
2023-05-02T12:51:34.861Z,79.7337
2023-05-02T12:52:35.718Z,81.1963
2023-05-02T12:53:36.286Z,81.6474
2023-05-02T12:54:36.943Z,81.5290
2023-05-02T12:55:37.676Z,81.4855
2023-05-02T12:56:38.301Z,83.7604
2023-05-02T12:57:39.080Z,86.6097
2023-05-02T12:58:39.894Z,88.6737
2023-05-02T12:59:40.347Z,90.4528
2023-05-02T13:00:41.194Z,91.1319
2023-05-02T13:01:42.586Z,91.5540
2023-05-02T13:02:43.472Z,92.0106
2023-05-02T13:03:43.930Z,92.4276
2023-05-02T13:04:45.185Z,92.3308